Time;durP1;ratioP1;P1;durP2;ratioP2;P2;SDS_P1;SDS_P2;PMS_P1;PMS_P2;Temp;Humidity;BMP_temperature;BMP_pressure;BME280_temperature;BME280_humidity;BME280_pressure;Samples;Min_cycle;Max_cycle;Signal;HPM_P1;HPM_P2
2023/08/26 00:02:19;;;;;;;22.10;11.70;;;19.60;95.70;;;;;;5117988;28;20057;-78
2023/08/26 00:04:46;;;;;;;20.08;11.18;;;19.60;95.70;;;;;;5136032;28;20501;-77
2023/08/26 00:07:12;;;;;;;21.77;12.00;;;19.50;95.80;;;;;;5117939;28;20095;-78
2023/08/26 00:09:38;;;;;;;16.92;10.38;;;19.50;95.80;;;;;;5117470;28;20030;-77
2023/08/26 00:12:04;;;;;;;21.52;11.57;;;19.50;95.90;;;;;;5100976;28;20063;-78
2023/08/26 00:14:29;;;;;;;16.67;10.05;;;19.60;95.70;;;;;;5100848;28;20028;-77
2023/08/26 00:16:55;;;;;;;19.27;9.80;;;19.60;95.60;;;;;;5100719;28;20091;-78
2023/08/26 00:19:20;;;;;;;17.13;10.35;;;19.60;95.50;;;;;;5100938;28;20073;-77
2023/08/26 00:21:47;;;;;;;17.77;10.00;;;19.60;95.30;;;;;;5135760;28;20035;-77
2023/08/26 00:24:13;;;;;;;17.95;9.93;;;19.50;95.20;;;;;;5100762;28;20020;-78
2023/08/26 00:26:39;;;;;;;16.25;9.27;;;19.40;95.30;;;;;;5100630;28;20034;-77
2023/08/26 00:29:05;;;;;;;17.58;10.43;;;19.40;95.40;;;;;;5117416;28;20035;-77
2023/08/26 00:31:30;;;;;;;19.05;9.45;;;19.30;95.50;;;;;;5117461;28;20023;-78
2023/08/26 00:33:57;;;;;;;13.82;9.13;;;19.30;95.60;;;;;;5100386;28;20036;-77
2023/08/26 00:36:23;;;;;;;16.02;9.80;;;19.30;95.70;;;;;;5117063;28;20043;-78
2023/08/26 00:38:49;;;;;;;18.10;10.05;;;19.30;95.70;;;;;;5117244;28;20040;-78
2023/08/26 00:41:14;;;;;;;19.98;9.95;;;19.30;95.60;;;;;;5117442;28;20028;-77
2023/08/26 00:43:40;;;;;;;19.58;10.57;;;19.20;95.60;;;;;;5100435;28;20024;-78
2023/08/26 00:46:06;;;;;;;18.92;10.00;;;19.20;95.70;;;;;;5117339;28;20031;-78
2023/08/26 00:48:32;;;;;;;19.13;10.07;;;19.00;95.60;;;;;;5117179;28;20038;-78
2023/08/26 00:50:58;;;;;;;18.70;10.63;;;19.00;95.50;;;;;;5117241;28;20035;-78
2023/08/26 00:53:23;;;;;;;16.50;9.15;;;19.00;95.50;;;;;;5117235;28;20040;-78
2023/08/26 00:55:51;;;;;;;18.10;8.52;;;18.90;95.00;;;;;;5100046;28;20031;-77
2023/08/26 00:58:18;;;;;;;15.88;8.13;;;18.80;94.20;;;;;;5116757;28;20019;-77
2023/08/26 01:00:44;;;;;;;14.40;7.07;;;18.60;93.40;;;;;;5100004;28;20055;-77
2023/08/26 01:03:10;;;;;;;12.30;7.57;;;18.50;93.70;;;;;;5099956;28;20028;-78
2023/08/26 01:05:35;;;;;;;10.73;5.78;;;18.50;93.40;;;;;;5116853;28;20023;-78
2023/08/26 01:08:04;;;;;;;11.68;6.65;;;18.40;92.90;;;;;;5083256;28;20039;-77
2023/08/26 01:11:03;;;;;;;14.48;7.03;;;18.40;93.10;;;;;;5100199;28;20383;-77
2023/08/26 01:13:41;;;;;;;13.55;6.78;;;18.40;93.00;;;;;;5116613;28;20016;-78
2023/08/26 01:16:08;;;;;;;15.18;7.03;;;18.40;93.30;;;;;;5134805;28;20072;-77
2023/08/26 01:18:34;;;;;;;12.70;7.47;;;18.30;93.10;;;;;;5116788;28;20054;-78
2023/08/26 01:21:00;;;;;;;16.55;7.43;;;18.30;93.20;;;;;;5115873;28;20024;-77
2023/08/26 01:23:43;;;;;;;11.30;7.38;;;18.30;93.30;;;;;;5099309;28;20054;-77
2023/08/26 01:26:09;;;;;;;12.05;5.95;;;18.10;93.60;;;;;;5099625;28;20043;-78
2023/08/26 01:28:34;;;;;;;9.90;6.65;;;18.10;93.30;;;;;;5099561;28;20032;-78
2023/08/26 01:31:08;;;;;;;10.02;5.28;;;18.00;93.30;;;;;;5116486;28;20030;-77
2023/08/26 01:33:42;;;;;;;10.65;5.78;;;18.00;93.20;;;;;;5134478;28;20079;-76
2023/08/26 01:36:13;;;;;;;11.02;5.47;;;18.00;93.30;;;;;;5116175;28;20071;-78
2023/08/26 01:38:40;;;;;;;8.60;4.60;;;18.00;93.00;;;;;;5116140;28;20032;-78
2023/08/26 01:41:09;;;;;;;10.77;4.63;;;18.00;92.90;;;;;;5116380;28;20024;-78
2023/08/26 01:43:36;;;;;;;10.73;4.35;;;18.00;92.70;;;;;;5134195;28;20020;-78
2023/08/26 01:46:01;;;;;;;8.45;3.97;;;17.90;92.80;;;;;;5082763;28;20024;-78
2023/08/26 01:48:27;;;;;;;6.30;3.90;;;17.70;92.40;;;;;;5099219;28;20038;-78
2023/08/26 01:50:53;;;;;;;7.40;4.22;;;17.60;92.70;;;;;;5099299;28;20055;-78
2023/08/26 01:53:18;;;;;;;9.02;3.90;;;17.60;92.80;;;;;;5116226;28;20470;-78
2023/08/26 01:55:44;;;;;;;7.93;3.90;;;17.60;92.80;;;;;;5099166;28;20035;-78
2023/08/26 01:58:09;;;;;;;7.88;3.78;;;17.60;92.80;;;;;;5099190;28;20035;-78
2023/08/26 02:00:35;;;;;;;7.50;3.50;;;17.50;92.50;;;;;;5099120;28;20035;-78
2023/08/26 02:03:01;;;;;;;8.70;3.47;;;17.40;92.70;;;;;;5099048;28;20027;-77
2023/08/26 02:05:27;;;;;;;7.63;3.20;;;17.40;92.50;;;;;;5099260;28;20035;-78
2023/08/26 02:07:52;;;;;;;5.82;3.13;;;17.40;92.40;;;;;;5116059;28;20024;-78
2023/08/26 02:10:18;;;;;;;6.43;3.67;;;17.30;92.40;;;;;;5099064;28;20031;-78
2023/08/26 02:12:43;;;;;;;7.32;3.15;;;17.30;92.60;;;;;;5099119;28;20027;-78
2023/08/26 02:15:09;;;;;;;6.40;2.70;;;17.20;92.50;;;;;;5115873;28;20039;-78
2023/08/26 02:17:37;;;;;;;5.65;2.50;;;17.20;92.40;;;;;;5098882;28;20032;-77
2023/08/26 02:20:03;;;;;;;4.13;2.80;;;17.10;92.40;;;;;;5115765;28;20432;-78
2023/08/26 02:22:28;;;;;;;5.22;2.75;;;17.10;92.70;;;;;;5133753;28;20023;-78
2023/08/26 02:24:54;;;;;;;5.90;3.40;;;17.20;92.60;;;;;;5099150;28;20049;-78
2023/08/26 02:27:19;;;;;;;4.40;2.70;;;17.10;92.60;;;;;;5099026;28;20053;-77
2023/08/26 02:29:46;;;;;;;5.43;3.05;;;17.10;93.00;;;;;;5099213;28;20035;-78
2023/08/26 02:32:13;;;;;;;8.20;3.17;;;17.00;92.50;;;;;;5099271;28;20074;-78
2023/08/26 02:34:38;;;;;;;4.05;2.83;;;16.90;92.70;;;;;;5103157;28;20027;-78
2023/08/26 02:37:04;;;;;;;6.38;2.75;;;16.90;92.70;;;;;;5102498;28;20142;-78
2023/08/26 02:39:29;;;;;;;6.72;2.72;;;16.90;92.70;;;;;;5086203;28;20018;-78
2023/08/26 02:41:55;;;;;;;6.05;3.00;;;16.80;92.80;;;;;;5102830;28;20355;-77
2023/08/26 02:44:21;;;;;;;6.50;2.90;;;16.80;92.80;;;;;;5102395;28;20036;-78
2023/08/26 02:46:47;;;;;;;4.95;2.72;;;16.80;92.90;;;;;;5119542;28;20030;-77
2023/08/26 02:49:13;;;;;;;5.47;2.80;;;16.80;92.90;;;;;;5119625;28;20055;-78
2023/08/26 02:51:38;;;;;;;6.60;2.92;;;16.70;92.80;;;;;;5102549;28;20023;-78
2023/08/26 02:54:04;;;;;;;5.68;2.90;;;16.60;92.80;;;;;;5102509;28;20088;-77
2023/08/26 02:56:30;;;;;;;5.80;2.20;;;16.60;93.00;;;;;;5119322;28;20036;-78
2023/08/26 02:58:55;;;;;;;8.38;3.00;;;16.60;92.90;;;;;;5085520;28;20051;-78
2023/08/26 03:01:21;;;;;;;5.88;3.08;;;16.60;93.00;;;;;;5102202;28;20027;-78
2023/08/26 03:03:46;;;;;;;4.63;2.53;;;16.60;93.00;;;;;;5102462;28;20023;-78
2023/08/26 03:06:12;;;;;;;7.13;3.25;;;16.70;93.10;;;;;;5102142;28;20145;-78
2023/08/26 03:08:38;;;;;;;5.60;2.58;;;16.70;92.90;;;;;;5085506;28;20053;-78
2023/08/26 03:11:05;;;;;;;4.15;2.58;;;16.60;93.10;;;;;;5102279;28;20040;-78
2023/08/26 03:13:31;;;;;;;8.07;2.85;;;16.60;93.10;;;;;;5119163;28;20047;-78
2023/08/26 03:15:57;;;;;;;3.65;2.38;;;16.60;93.00;;;;;;5118950;28;20118;-78
2023/08/26 03:18:23;;;;;;;4.65;2.47;;;16.60;93.00;;;;;;5136916;28;20031;-79
2023/08/26 03:20:49;;;;;;;4.97;2.70;;;16.60;93.20;;;;;;5102024;28;20027;-78
2023/08/26 03:23:15;;;;;;;6.05;2.97;;;16.60;93.10;;;;;;5085264;28;20032;-78
2023/08/26 03:25:41;;;;;;;8.88;2.42;;;16.60;93.00;;;;;;5118822;28;20016;-77
2023/08/26 03:28:08;;;;;;;6.28;3.10;;;16.50;93.00;;;;;;5101977;28;20027;-78
2023/08/26 03:30:35;;;;;;;6.57;2.58;;;16.50;92.90;;;;;;5118717;28;20057;-78
2023/08/26 03:33:02;;;;;;;6.43;2.88;;;16.50;93.00;;;;;;5136735;28;20028;-78
2023/08/26 03:35:27;;;;;;;5.70;2.78;;;16.50;93.00;;;;;;5118558;28;20026;-78
2023/08/26 03:37:53;;;;;;;5.82;2.50;;;16.50;92.90;;;;;;5101523;28;20052;-78
2023/08/26 03:40:22;;;;;;;8.00;2.70;;;16.40;92.90;;;;;;5101472;28;20020;-78
2023/08/26 03:42:51;;;;;;;4.47;2.30;;;16.40;93.40;;;;;;5102658;28;20023;-78
2023/08/26 03:45:17;;;;;;;4.68;2.40;;;16.30;92.90;;;;;;5084258;28;20024;-78
2023/08/26 03:47:43;;;;;;;4.55;2.60;;;16.30;93.10;;;;;;5136439;28;20024;-78
2023/08/26 03:50:09;;;;;;;3.13;2.50;;;16.40;93.00;;;;;;5118179;28;20032;-78
2023/08/26 03:52:34;;;;;;;6.30;3.30;;;16.40;93.00;;;;;;5118366;28;20509;-78
2023/08/26 03:55:01;;;;;;;5.93;3.10;;;16.40;92.70;;;;;;5084644;28;20023;-78
2023/08/26 03:57:27;;;;;;;6.95;3.20;;;16.40;92.80;;;;;;5117973;28;20030;-78
2023/08/26 03:59:53;;;;;;;6.63;3.50;;;16.20;92.90;;;;;;5084485;28;20020;-78
2023/08/26 04:02:18;;;;;;;7.65;3.05;;;16.20;92.80;;;;;;5084438;28;20024;-78
2023/08/26 04:04:44;;;;;;;4.68;2.78;;;16.10;93.00;;;;;;5118169;28;20024;-78
2023/08/26 04:07:09;;;;;;;6.43;3.13;;;16.10;93.10;;;;;;5118045;28;20059;-78
2023/08/26 04:09:35;;;;;;;5.07;3.00;;;16.10;93.10;;;;;;5101140;28;20034;-78
2023/08/26 04:12:01;;;;;;;7.20;2.78;;;16.00;93.30;;;;;;5101248;28;20031;-78
2023/08/26 04:14:27;;;;;;;5.68;2.63;;;16.00;93.20;;;;;;5135843;28;20024;-78
2023/08/26 04:16:53;;;;;;;8.07;2.80;;;16.00;93.20;;;;;;5135787;28;20030;-78
2023/08/26 04:19:18;;;;;;;4.03;2.85;;;16.00;93.10;;;;;;5084037;28;20053;-78
2023/08/26 04:21:44;;;;;;;4.75;2.80;;;15.90;93.30;;;;;;5117822;28;20035;-78
2023/08/26 04:24:10;;;;;;;6.68;2.58;;;15.90;93.30;;;;;;5100828;28;20027;-78
2023/08/26 04:26:35;;;;;;;3.92;2.53;;;15.90;93.30;;;;;;5084061;28;20020;-79
2023/08/26 04:29:01;;;;;;;3.85;2.38;;;15.90;93.30;;;;;;5100549;28;20085;-78
2023/08/26 04:31:27;;;;;;;6.22;2.50;;;15.90;93.20;;;;;;5100549;28;20047;-78
2023/08/26 04:33:52;;;;;;;5.35;2.45;;;15.90;93.40;;;;;;5100460;28;20545;-78
2023/08/26 04:36:18;;;;;;;5.25;2.20;;;15.90;93.40;;;;;;5135112;28;20040;-78
2023/08/26 04:38:45;;;;;;;7.40;2.30;;;15.90;93.20;;;;;;5100309;28;20036;-78
2023/08/26 04:41:11;;;;;;;5.28;2.70;;;15.90;93.20;;;;;;5084215;28;20031;-78
2023/08/26 04:43:36;;;;;;;3.80;2.10;;;15.90;93.00;;;;;;5117476;28;20027;-78
2023/08/26 04:46:02;;;;;;;6.47;2.50;;;15.90;93.10;;;;;;5100210;28;20038;-78
2023/08/26 04:48:28;;;;;;;9.13;2.55;;;15.80;93.20;;;;;;5117361;28;20053;-78
2023/08/26 04:50:55;;;;;;;8.05;2.88;;;15.80;93.30;;;;;;5135159;28;20043;-78
2023/08/26 04:53:20;;;;;;;4.97;2.50;;;15.70;93.00;;;;;;5135129;28;20024;-78
2023/08/26 04:55:51;;;;;;;9.63;2.92;;;15.70;93.20;;;;;;5117108;28;20057;-78
2023/08/26 04:58:17;;;;;;;6.70;2.60;;;15.60;93.50;;;;;;5116907;28;20062;-78
2023/08/26 05:00:43;;;;;;;6.18;2.63;;;15.50;93.60;;;;;;5117071;28;20020;-78
2023/08/26 05:03:09;;;;;;;7.03;2.60;;;15.50;93.70;;;;;;5099894;28;20027;-79
2023/08/26 05:05:35;;;;;;;4.53;2.60;;;15.50;93.70;;;;;;5099961;28;20012;-78
2023/08/26 05:08:00;;;;;;;5.40;2.67;;;15.40;93.80;;;;;;5099944;28;20035;-78
2023/08/26 05:10:26;;;;;;;8.73;3.00;;;15.40;93.90;;;;;;5099802;28;20027;-78
2023/08/26 05:12:52;;;;;;;5.95;2.90;;;15.50;93.90;;;;;;5083123;28;20024;-78
2023/08/26 05:15:17;;;;;;;4.60;2.53;;;15.50;93.90;;;;;;5099773;28;20027;-78
2023/08/26 05:17:43;;;;;;;4.57;2.72;;;15.50;94.00;;;;;;5099688;28;20023;-78
2023/08/26 05:20:09;;;;;;;4.65;2.70;;;15.50;94.00;;;;;;5099700;28;20394;-79
2023/08/26 05:22:34;;;;;;;5.15;2.63;;;15.50;94.00;;;;;;5099605;28;20024;-78
2023/08/26 05:25:00;;;;;;;7.50;3.05;;;15.50;94.00;;;;;;5116661;28;20028;-78
2023/08/26 05:27:27;;;;;;;4.82;2.85;;;15.40;94.00;;;;;;5099577;28;20032;-78
2023/08/26 05:29:53;;;;;;;6.22;2.92;;;15.50;94.00;;;;;;5099826;28;20028;-78
2023/08/26 05:32:19;;;;;;;8.30;3.20;;;15.50;94.00;;;;;;5099538;28;20095;-78
2023/08/26 05:34:44;;;;;;;7.45;2.63;;;15.60;93.90;;;;;;5099516;28;20060;-77
2023/08/26 05:37:10;;;;;;;5.88;2.83;;;15.50;93.90;;;;;;5134005;28;20089;-78
2023/08/26 05:39:36;;;;;;;5.55;2.80;;;15.60;93.90;;;;;;5099421;28;20055;-77
2023/08/26 05:42:01;;;;;;;4.97;2.60;;;15.60;94.00;;;;;;5116317;28;20045;-79
2023/08/26 05:44:27;;;;;;;4.78;2.83;;;15.60;93.90;;;;;;5116394;28;20024;-78
2023/08/26 05:46:54;;;;;;;5.78;2.67;;;15.60;94.00;;;;;;5116273;28;20081;-78
2023/08/26 05:49:20;;;;;;;6.85;2.58;;;15.60;94.10;;;;;;5116424;28;20027;-77
2023/08/26 05:51:45;;;;;;;5.40;3.08;;;15.60;94.10;;;;;;5082376;28;20053;-77
2023/08/26 05:54:11;;;;;;;5.18;2.50;;;15.60;94.10;;;;;;5116177;28;20032;-78
2023/08/26 05:56:36;;;;;;;6.50;2.65;;;15.60;94.00;;;;;;5099223;28;20038;-77
2023/08/26 05:59:02;;;;;;;6.00;2.90;;;15.60;94.10;;;;;;5115977;28;20057;-80
2023/08/26 06:01:28;;;;;;;5.85;2.63;;;15.60;94.30;;;;;;5116152;28;20091;-79
2023/08/26 06:03:55;;;;;;;6.75;3.30;;;15.60;94.30;;;;;;5134021;28;20020;-77
2023/08/26 06:06:20;;;;;;;5.03;2.72;;;15.60;94.40;;;;;;5098979;28;20035;-78
2023/08/26 06:08:46;;;;;;;9.40;2.90;;;15.60;94.30;;;;;;5104106;28;20031;-78
2023/08/26 06:11:12;;;;;;;7.30;2.60;;;15.60;94.40;;;;;;5105923;28;20038;-78
2023/08/26 06:13:37;;;;;;;6.32;2.78;;;15.60;94.60;;;;;;5122758;28;20016;-78
2023/08/26 06:16:03;;;;;;;5.43;3.33;;;15.60;94.60;;;;;;5088967;28;20042;-79
2023/08/26 06:18:29;;;;;;;4.53;2.65;;;15.70;94.60;;;;;;5088862;28;20091;-79
2023/08/26 06:20:54;;;;;;;5.03;2.63;;;15.70;94.80;;;;;;5105705;28;20023;-79
2023/08/26 06:23:20;;;;;;;6.65;2.90;;;15.70;94.80;;;;;;5105722;28;20012;-78
2023/08/26 06:25:56;;;;;;;3.38;2.50;;;15.80;94.80;;;;;;5140701;28;20435;-78
2023/08/26 06:28:23;;;;;;;6.50;2.97;;;15.80;94.60;;;;;;5140674;28;20020;-79
2023/08/26 06:30:49;;;;;;;6.28;2.78;;;15.90;94.70;;;;;;5122517;28;20019;-79
2023/08/26 06:33:15;;;;;;;6.32;2.88;;;16.00;94.70;;;;;;5122639;28;20037;-82
2023/08/26 06:35:45;;;;;;;6.13;2.75;;;16.10;94.70;;;;;;5122455;28;20030;-81
2023/08/26 06:38:11;;;;;;;4.97;2.50;;;16.10;94.70;;;;;;5140322;28;20040;-80
2023/08/26 06:40:36;;;;;;;5.25;2.55;;;16.10;94.50;;;;;;5122405;28;20032;-82
2023/08/26 06:43:03;;;;;;;5.75;2.50;;;16.10;94.50;;;;;;5140505;28;20034;-79
2023/08/26 06:45:30;;;;;;;7.55;3.10;;;16.20;94.40;;;;;;5122427;28;20455;-80
2023/08/26 06:47:56;;;;;;;7.05;2.90;;;16.30;94.40;;;;;;5105477;28;20034;-79
2023/08/26 06:50:22;;;;;;;9.32;3.13;;;16.20;94.10;;;;;;5105493;28;20027;-78
2023/08/26 06:52:49;;;;;;;5.82;2.63;;;16.20;94.40;;;;;;5088897;28;20091;-78
2023/08/26 06:55:18;;;;;;;6.95;2.92;;;16.20;94.50;;;;;;5122288;28;20020;-81
2023/08/26 06:57:44;;;;;;;12.23;3.47;;;16.30;94.40;;;;;;5089120;28;20035;-79
2023/08/26 07:00:12;;;;;;;7.60;3.20;;;16.30;94.40;;;;;;5122618;28;20083;-81
2023/08/26 07:02:37;;;;;;;6.50;2.33;;;16.50;94.70;;;;;;5122363;28;20016;-78
2023/08/26 07:05:04;;;;;;;5.28;2.63;;;16.50;94.40;;;;;;5105295;28;20038;-78
2023/08/26 07:07:29;;;;;;;6.50;2.40;;;16.50;94.00;;;;;;5105402;28;20044;-77
2023/08/26 07:09:55;;;;;;;6.00;2.75;;;16.50;94.10;;;;;;5105208;28;20031;-78
2023/08/26 07:12:21;;;;;;;7.97;2.60;;;16.60;94.30;;;;;;5088539;28;20028;-78
2023/08/26 07:14:47;;;;;;;6.55;2.45;;;16.60;94.30;;;;;;5122079;28;20028;-77
2023/08/26 07:17:17;;;;;;;6.90;2.58;;;16.60;94.00;;;;;;5140135;28;20047;-78
2023/08/26 07:19:42;;;;;;;5.75;2.58;;;16.60;94.10;;;;;;5119612;28;20015;-78
2023/08/26 07:22:08;;;;;;;4.82;2.83;;;16.60;93.90;;;;;;5102015;28;20016;-77
2023/08/26 07:24:34;;;;;;;7.90;2.88;;;16.60;94.20;;;;;;5101937;28;20089;-77
2023/08/26 07:26:59;;;;;;;7.53;2.40;;;16.80;94.20;;;;;;5136788;28;20024;-77
2023/08/26 07:29:25;;;;;;;8.10;2.30;;;16.70;93.90;;;;;;5136774;28;20053;-77
2023/08/26 07:31:51;;;;;;;5.15;2.40;;;16.80;94.00;;;;;;5118794;28;20047;-77
2023/08/26 07:34:16;;;;;;;4.72;1.92;;;16.80;94.30;;;;;;5118665;28;20039;-77
2023/08/26 07:36:42;;;;;;;7.65;2.33;;;16.90;94.70;;;;;;5101542;28;20056;-76
2023/08/26 07:39:08;;;;;;;5.20;2.20;;;17.00;94.10;;;;;;5118630;28;20047;-77
2023/08/26 07:41:35;;;;;;;5.07;2.20;;;17.00;93.80;;;;;;5084918;28;20024;-77
2023/08/26 07:44:01;;;;;;;5.70;2.55;;;17.00;93.90;;;;;;5101723;28;20024;-77
2023/08/26 07:46:26;;;;;;;5.45;2.28;;;17.10;93.70;;;;;;5101445;28;20138;-76
2023/08/26 07:48:52;;;;;;;7.72;2.47;;;17.10;93.40;;;;;;5118388;28;20123;-78
2023/08/26 07:51:18;;;;;;;4.47;1.95;;;17.10;93.50;;;;;;5084628;28;20023;-77
2023/08/26 07:53:44;;;;;;;6.82;2.30;;;17.20;93.50;;;;;;5118193;28;20041;-77
2023/08/26 07:56:10;;;;;;;6.22;2.20;;;17.30;93.40;;;;;;5118121;28;20024;-77
2023/08/26 07:58:35;;;;;;;3.25;2.00;;;17.30;93.30;;;;;;5136164;28;20031;-77
2023/08/26 08:01:02;;;;;;;5.68;2.15;;;17.40;93.30;;;;;;5101378;28;20069;-77
2023/08/26 08:03:27;;;;;;;6.38;2.40;;;17.40;93.20;;;;;;5118070;28;20028;-77
2023/08/26 08:05:53;;;;;;;5.88;2.10;;;17.40;93.00;;;;;;5101120;28;20126;-77
2023/08/26 08:08:19;;;;;;;6.78;2.47;;;17.50;93.50;;;;;;5101012;28;20027;-77
2023/08/26 08:10:44;;;;;;;3.42;1.88;;;17.60;93.30;;;;;;5084231;28;20035;-77
2023/08/26 08:13:10;;;;;;;5.47;2.20;;;17.60;92.50;;;;;;5118020;28;20036;-77
2023/08/26 08:15:36;;;;;;;5.55;2.30;;;17.60;92.70;;;;;;5118070;28;20031;-77
2023/08/26 08:18:02;;;;;;;5.65;2.08;;;17.70;93.20;;;;;;5100824;28;20057;-77
2023/08/26 08:20:31;;;;;;;6.72;1.90;;;17.80;92.90;;;;;;5117683;28;20020;-77
2023/08/26 08:22:57;;;;;;;3.22;1.77;;;17.80;92.60;;;;;;5135712;28;20019;-77
2023/08/26 08:25:22;;;;;;;5.75;1.63;;;17.90;92.30;;;;;;5100722;28;20039;-77
2023/08/26 08:27:48;;;;;;;4.57;1.73;;;18.00;92.40;;;;;;5100626;28;20047;-77
2023/08/26 08:30:14;;;;;;;5.10;2.05;;;18.00;91.80;;;;;;5083627;28;20095;-77
2023/08/26 08:32:40;;;;;;;7.00;2.20;;;18.10;92.30;;;;;;5117455;28;20027;-78
2023/08/26 08:35:06;;;;;;;6.97;1.95;;;18.10;92.20;;;;;;5117333;28;20091;-78
2023/08/26 08:37:33;;;;;;;3.90;1.73;;;18.20;92.20;;;;;;5135114;28;20044;-78
2023/08/26 08:39:59;;;;;;;3.42;1.35;;;18.40;92.60;;;;;;5117588;28;20037;-77
2023/08/26 08:42:25;;;;;;;2.95;1.45;;;18.40;91.70;;;;;;5117343;28;20042;-77
2023/08/26 08:44:51;;;;;;;4.35;1.67;;;18.50;91.90;;;;;;5117604;28;20083;-76
2023/08/26 08:47:17;;;;;;;2.30;1.40;;;18.60;91.30;;;;;;5100266;28;20027;-77
2023/08/26 08:49:43;;;;;;;2.85;1.63;;;18.60;91.50;;;;;;5117384;28;20038;-77
2023/08/26 08:52:10;;;;;;;4.00;1.50;;;18.70;91.40;;;;;;5117039;28;20019;-77
2023/08/26 08:54:36;;;;;;;6.55;1.65;;;18.70;91.20;;;;;;5117069;28;20044;-77
2023/08/26 08:57:03;;;;;;;2.28;1.50;;;18.70;91.10;;;;;;5100175;28;20027;-78
2023/08/26 08:59:32;;;;;;;4.32;1.70;;;18.80;90.40;;;;;;5116919;28;20030;-78
2023/08/26 09:01:59;;;;;;;4.60;1.80;;;18.80;90.60;;;;;;5100405;28;20035;-78
2023/08/26 09:04:26;;;;;;;5.60;1.83;;;18.90;90.70;;;;;;5116970;28;20023;-77
2023/08/26 09:06:52;;;;;;;4.95;1.63;;;19.00;90.70;;;;;;5116786;28;20020;-78
2023/08/26 09:09:19;;;;;;;3.83;1.73;;;19.10;90.50;;;;;;5099843;28;20043;-78
2023/08/26 09:11:47;;;;;;;5.47;2.20;;;19.10;91.10;;;;;;5116722;28;20045;-77
2023/08/26 09:14:12;;;;;;;5.32;1.73;;;19.30;90.60;;;;;;5116819;28;20024;-77
2023/08/26 09:16:39;;;;;;;2.65;1.50;;;19.30;90.20;;;;;;5116772;28;20020;-77
2023/08/26 09:19:06;;;;;;;4.15;1.50;;;19.40;90.20;;;;;;5116532;28;20080;-77
2023/08/26 09:21:32;;;;;;;6.93;1.70;;;19.30;89.50;;;;;;5116596;28;20023;-77
2023/08/26 09:23:59;;;;;;;3.45;1.65;;;19.30;88.90;;;;;;5134524;28;20032;-77
2023/08/26 09:26:24;;;;;;;3.63;1.83;;;19.50;90.70;;;;;;5099497;28;20020;-77
2023/08/26 09:28:51;;;;;;;3.65;1.23;;;19.60;88.40;;;;;;5116634;28;20051;-77
2023/08/26 09:31:17;;;;;;;2.30;1.40;;;19.60;89.30;;;;;;5116512;28;20035;-77
2023/08/26 09:33:59;;;;;;;6.45;1.38;;;19.60;88.50;;;;;;5116469;28;20023;-78
2023/08/26 09:36:40;;;;;;;3.35;1.50;;;19.70;88.70;;;;;;5134448;28;20045;-77
2023/08/26 09:39:13;;;;;;;2.80;1.50;;;19.80;88.50;;;;;;5116268;28;20062;-77
2023/08/26 09:41:43;;;;;;;3.00;1.20;;;19.90;89.00;;;;;;5116159;28;20019;-77
2023/08/26 09:44:10;;;;;;;3.15;1.30;;;19.90;86.90;;;;;;5115842;28;20059;-77
2023/08/26 09:46:36;;;;;;;6.88;1.55;;;19.90;86.50;;;;;;5099528;28;20024;-78
2023/08/26 09:49:03;;;;;;;3.83;1.27;;;19.90;87.20;;;;;;5116206;28;20039;-76
2023/08/26 09:51:31;;;;;;;2.90;1.08;;;19.70;85.40;;;;;;5116299;28;20034;-74
2023/08/26 09:53:58;;;;;;;2.45;1.30;;;19.60;86.60;;;;;;5099421;28;20024;-75
2023/08/26 09:56:25;;;;;;;2.47;1.40;;;19.50;86.20;;;;;;5116158;28;20023;-75
2023/08/26 09:58:52;;;;;;;2.05;1.23;;;19.60;87.40;;;;;;5099162;28;20062;-75
2023/08/26 10:01:20;;;;;;;4.32;1.40;;;19.60;87.40;;;;;;5133991;28;20049;-75
2023/08/26 10:03:49;;;;;;;2.03;0.80;;;19.70;88.20;;;;;;5099065;28;20100;-75
2023/08/26 10:06:17;;;;;;;3.30;1.00;;;19.70;86.80;;;;;;5133984;28;20039;-75
2023/08/26 10:08:48;;;;;;;2.88;1.27;;;19.70;85.90;;;;;;5133907;28;20027;-75
2023/08/26 10:11:18;;;;;;;3.45;1.20;;;19.70;84.60;;;;;;5116010;28;20027;-75
2023/08/26 10:13:46;;;;;;;1.48;0.98;;;19.80;85.50;;;;;;5099606;28;20067;-75
2023/08/26 10:16:14;;;;;;;1.92;1.23;;;19.80;85.40;;;;;;5115808;28;20026;-75
2023/08/26 10:18:45;;;;;;;3.67;1.00;;;19.90;86.30;;;;;;5133774;28;20075;-75
2023/08/26 10:21:13;;;;;;;1.13;0.80;;;20.00;86.60;;;;;;5115918;28;20020;-75
2023/08/26 10:23:39;;;;;;;4.10;1.00;;;20.00;84.10;;;;;;5133792;28;20023;-75
2023/08/26 10:26:09;;;;;;;2.35;1.27;;;20.00;84.50;;;;;;5115953;28;20051;-75
2023/08/26 10:28:35;;;;;;;2.10;1.00;;;20.00;83.70;;;;;;5098773;28;20030;-75
2023/08/26 10:31:14;;;;;;;3.85;1.25;;;20.10;85.30;;;;;;5115680;28;20054;-75
2023/08/26 10:34:01;;;;;;;3.47;1.25;;;20.20;84.00;;;;;;5115854;28;20038;-75
2023/08/26 10:36:28;;;;;;;4.32;1.30;;;20.30;84.70;;;;;;5115763;28;20028;-75
2023/08/26 10:38:58;;;;;;;2.05;1.08;;;20.30;84.50;;;;;;5111863;28;20049;-75
2023/08/26 10:41:25;;;;;;;1.83;1.23;;;20.30;83.90;;;;;;5112333;28;20032;-75
2023/08/26 10:43:55;;;;;;;3.35;1.23;;;20.30;83.50;;;;;;5113226;28;20024;-75
2023/08/26 10:46:52;;;;;;;3.78;1.10;;;20.30;83.70;;;;;;5112155;28;20039;-75
2023/08/26 10:49:22;;;;;;;3.38;1.30;;;20.30;83.80;;;;;;5113211;28;20374;-78
2023/08/26 10:51:48;;;;;;;2.85;1.33;;;20.30;83.10;;;;;;5095374;28;20039;-78
2023/08/26 10:54:13;;;;;;;3.40;1.55;;;20.20;83.20;;;;;;5114681;28;20020;-78
2023/08/26 10:56:56;;;;;;;2.22;1.08;;;20.20;84.10;;;;;;5082312;28;20478;-78
2023/08/26 10:59:37;;;;;;;1.42;0.90;;;20.30;83.10;;;;;;5101263;28;20024;-78
2023/08/26 11:02:08;;;;;;;2.72;1.15;;;20.10;81.90;;;;;;5115863;28;20020;-79
2023/08/26 11:04:44;;;;;;;1.45;1.05;;;20.10;83.30;;;;;;5116882;28;20055;-78
2023/08/26 11:07:18;;;;;;;4.15;1.25;;;20.20;83.50;;;;;;5115796;28;20024;-78
2023/08/26 11:09:44;;;;;;;2.38;0.93;;;20.20;81.80;;;;;;5082711;28;20024;-78
2023/08/26 11:12:26;;;;;;;2.47;1.00;;;20.20;82.10;;;;;;5098811;28;20017;-77
2023/08/26 11:15:05;;;;;;;1.98;0.77;;;20.20;81.20;;;;;;5115591;28;20028;-78
2023/08/26 11:17:32;;;;;;;2.25;0.80;;;20.30;82.60;;;;;;5100460;28;20036;-77
2023/08/26 11:19:58;;;;;;;2.83;1.10;;;20.40;82.30;;;;;;5132480;28;20028;-78
2023/08/26 11:22:26;;;;;;;2.20;1.27;;;20.50;81.80;;;;;;5115543;28;20088;-78
2023/08/26 11:24:51;;;;;;;2.95;0.80;;;20.60;82.40;;;;;;5116504;28;20016;-78
2023/08/26 11:27:18;;;;;;;2.53;0.80;;;20.60;80.40;;;;;;5115452;28;20038;-78
2023/08/26 11:29:43;;;;;;;1.48;0.85;;;20.70;81.00;;;;;;5098809;28;20043;-78
2023/08/26 11:32:09;;;;;;;2.75;0.80;;;20.80;80.90;;;;;;5115423;28;20031;-78
2023/08/26 11:34:37;;;;;;;1.80;0.80;;;20.90;81.80;;;;;;5115300;28;20032;-77
2023/08/26 11:37:02;;;;;;;3.28;1.02;;;20.80;79.30;;;;;;5117310;28;20024;-79
2023/08/26 11:39:34;;;;;;;1.77;0.85;;;20.90;80.30;;;;;;5085065;28;20035;-78
2023/08/26 11:42:20;;;;;;;1.45;0.82;;;21.00;78.70;;;;;;5118569;28;20023;-78
2023/08/26 11:44:46;;;;;;;1.67;0.73;;;21.10;79.10;;;;;;5118061;28;20035;-79
2023/08/26 11:47:13;;;;;;;3.15;0.90;;;21.10;79.10;;;;;;5118632;28;20023;-79
2023/08/26 11:49:39;;;;;;;1.92;0.90;;;21.10;76.50;;;;;;5136477;28;20042;-79
2023/08/26 11:52:05;;;;;;;1.67;0.75;;;21.00;77.80;;;;;;5101443;28;20027;-79
2023/08/26 11:54:31;;;;;;;1.40;0.60;;;21.10;78.80;;;;;;5118384;28;20031;-78
2023/08/26 11:56:58;;;;;;;1.55;0.85;;;21.10;76.90;;;;;;5101476;28;20031;-78
2023/08/26 11:59:24;;;;;;;2.20;0.95;;;21.20;76.80;;;;;;5118168;28;20034;-78
2023/08/26 12:01:49;;;;;;;1.52;1.00;;;21.30;76.80;;;;;;5118125;28;20024;-78
2023/08/26 12:04:16;;;;;;;1.55;0.82;;;21.40;78.00;;;;;;5101201;28;20031;-78
2023/08/26 12:06:42;;;;;;;3.47;1.20;;;21.50;78.50;;;;;;5100435;28;20110;-77
2023/08/26 12:09:08;;;;;;;4.90;1.65;;;21.50;78.20;;;;;;5136065;28;20031;-78
2023/08/26 12:11:37;;;;;;;2.70;1.00;;;21.70;75.90;;;;;;5117934;28;20028;-78
2023/08/26 12:14:20;;;;;;;1.73;0.93;;;21.70;77.60;;;;;;5101717;28;20049;-77
2023/08/26 12:16:45;;;;;;;;;;;21.90;76.70;;;;;;5102020;28;20035;-77
2023/08/26 12:19:18;;;;;;;2.92;1.00;;;21.80;75.10;;;;;;5117698;28;19919;-77
2023/08/26 12:21:48;;;;;;;;;;;21.80;76.40;;;;;;5118170;28;20028;-77
2023/08/26 12:24:13;;;;;;;3.17;1.00;;;21.90;75.30;;;;;;5135945;28;20293;-76
2023/08/26 12:26:39;;;;;;;2.08;1.00;;;21.90;75.20;;;;;;5117720;28;20048;-78
2023/08/26 12:29:05;;;;;;;1.30;1.02;;;21.90;74.10;;;;;;5084067;28;20024;-78
2023/08/26 12:31:34;;;;;;;3.15;1.05;;;21.90;73.90;;;;;;5100612;28;20022;-78
2023/08/26 12:34:01;;;;;;;3.28;0.93;;;22.10;74.20;;;;;;5100960;28;20024;-77
2023/08/26 12:36:27;;;;;;;1.63;0.90;;;22.10;73.90;;;;;;5084153;28;20039;-77
2023/08/26 12:38:52;;;;;;;3.03;1.20;;;22.10;73.90;;;;;;5117178;28;20139;-78
2023/08/26 12:41:18;;;;;;;8.18;1.80;;;22.00;73.90;;;;;;5117314;28;20016;-78
2023/08/26 12:43:46;;;;;;;3.30;1.15;;;22.00;74.00;;;;;;5100564;28;20023;-79
2023/08/26 12:46:12;;;;;;;4.93;1.70;;;22.00;73.80;;;;;;5117177;28;20024;-78